Date,TemperatureHighF,TemperatureAvgF,TemperatureLowF,DewpointHighF,DewpointAvgF,DewpointLowF,HumidityHigh,HumidityAvg,HumidityLow,PressureMaxIn,PressureMinIn,WindSpeedMaxMPH,WindSpeedAvgMPH,GustSpeedMaxMPH,PrecipitationSumIn
2013-1-1,48,45,39,40,37,34,32,29,26,30.07,29.88,5,0,8,0.32
2013-1-2,44,38,34,42,41,39,33,32,31,30.07,29.84,9,1,10,0.02
2013-1-3,39,33,24,45,40,37,38,31,28,30.28,30.03,8,1,12,0.00
2013-1-4,41,29,20,38,36,33,28,26,24,30.38,30.25,13,2,17,0.00
2013-1-5,48,34,19,36,34,32,26,25,23,30.40,30.18,10,2,12,0.00
2013-1-6,50,39,35,37,36,35,28,27,26,30.19,29.98,18,2,18,0.00
2013-1-7,52,36,25,42,36,34,34,27,25,30.35,30.17,12,2,22,0.00
2013-1-8,54,38,25,40,37,33,28,27,24,30.40,30.27,9,1,10,0.00
2013-1-9,58,45,33,47,42,37,36,31,28,30.43,30.33,5,0,7,0.00
2013-1-10,64,53,45,50,46,44,40,37,34,30.42,30.19,15,3,18,0.00
2013-1-11,56,52,48,54,49,46,45,41,38,30.20,30.01,14,3,17,0.10
2013-1-12,70,61,51,51,50,49,44,43,41,30.08,29.95,8,2,11,0.01
2013-1-13,66,61,51,50,49,48,43,42,40,29.99,29.89,15,2,20,0.05
2013-1-14,56,52,43,54,52,49,48,45,42,30.09,29.89,6,1,8,1.87
2013-1-15,54,48,43,53,51,49,46,44,42,30.04,29.89,8,2,12,1.42
2013-1-16,59,50,46,54,51,50,48,45,43,29.94,29.82,9,1,10,0.38
2013-1-17,50,40,29,54,50,46,50,43,38,30.17,29.72,11,1,12,1.35
2013-1-18,43,31,25,46,43,41,38,34,32,30.48,30.18,6,1,8,0.28
2013-1-19,54,37,25,42,40,39,33,32,31,30.43,30.12,8,1,10,0.01
2013-1-20,54,41,27,39,39,38,31,30,30,30.12,30.00,12,2,16,0.00
2013-1-21,50,35,23,39,37,36,31,29,27,30.06,29.93,20,4,24,0.00
2013-1-22,33,24,18,36,34,29,28,25,21,30.22,30.00,15,5,22,0.00
2013-1-23,45,32,20,36,34,30,26,24,21,30.30,30.04,10,2,13,0.00
2013-1-24,41,32,23,36,35,31,26,24,22,30.32,29.98,22,6,31,0.00
2013-1-25,44,29,20,36,32,29,27,23,20,30.34,30.03,12,4,18,0.05
2013-1-26,48,34,27,36,35,34,27,26,25,30.30,30.09,9,2,13,0.00
2013-1-27,44,33,22,35,34,32,26,25,23,30.42,30.30,14,4,17,0.01
2013-1-28,61,46,32,43,39,35,32,29,26,30.36,30.18,12,3,19,0.00
2013-1-29,67,54,40,48,44,41,38,35,31,30.18,29.87,12,2,18,0.01
2013-1-30,67,56,41,54,50,46,47,42,37,29.88,29.33,15,4,25,1.59
2013-1-31,41,33,26,48,43,40,40,33,29,29.97,29.43,15,5,28,0.01
2013-2-1,38,25,16,46,37,34,38,27,23,30.33,29.89,21,6,30,0.00
2013-2-2,38,27,16,36,34,33,27,25,24,30.33,30.01,11,2,21,0.00
2013-2-3,42,33,26,36,35,34,27,26,25,30.03,29.87,17,5,29,0.06
2013-2-4,51,34,21,37,35,32,26,25,23,30.09,29.93,9,2,12,0.00
2013-2-5,53,42,33,41,37,33,30,27,24,29.95,29.86,12,2,14,0.00
2013-2-6,57,43,32,42,38,36,33,28,27,30.16,29.95,9,2,15,0.00
2013-2-7,45,41,34,41,38,35,30,28,26,30.15,29.91,11,2,15,0.25
2013-2-8,47,40,31,45,41,39,34,31,29,30.11,29.84,21,5,23,0.01
2013-2-9,55,38,25,39,36,35,29,27,26,30.29,30.09,7,2,12,0.00
2013-2-10,51,41,32,38,35,33,29,26,24,30.28,30.03,22,3,26,0.44
2013-2-11,57,50,41,47,43,38,37,34,29,30.05,29.91,13,2,22,0.04
2013-2-12,50,41,33,42,40,38,32,30,27,30.07,29.84,8,1,9,0.19
2013-2-13,52,40,33,43,41,39,32,31,30,29.84,29.56,17,4,24,0.11
2013-2-14,52,37,28,41,39,36,30,29,27,30.00,29.85,10,2,15,0.00
2013-2-15,55,37,25,40,38,35,29,28,26,30.06,29.90,15,2,20,0.00
2013-2-16,32,27,20,39,35,32,29,26,23,29.99,29.82,21,5,27,0.00
2013-2-17,32,23,18,32,29,28,23,21,20,30.25,29.99,23,6,32,0.00
2013-2-18,53,33,17,37,31,27,28,22,19,30.35,30.08,11,2,14,0.00
2013-2-19,49,39,32,40,36,33,29,26,24,30.09,29.81,22,6,28,0.08
2013-2-20,46,34,25,34,33,31,25,23,21,30.11,30.00,11,2,17,0.00
2013-2-21,59,38,20,35,33,30,25,23,21,30.18,30.01,11,2,12,0.30
2013-2-22,43,38,35,42,38,34,33,27,25,30.16,29.99,12,5,15,0.24
2013-2-23,54,45,38,41,40,38,32,30,28,29.99,29.75,8,1,11,0.14
2013-2-24,54,42,30,41,38,36,32,29,26,29.99,29.79,15,2,16,0.00
2013-2-25,46,36,27,36,34,32,27,25,22,30.04,29.92,18,4,19,0.00
2013-2-26,50,39,32,43,38,36,32,28,26,29.92,29.46,21,5,25,0.80
2013-2-27,54,42,34,39,38,34,29,27,25,29.73,29.59,16,4,22,0.00
2013-2-28,38,33,29,38,36,34,28,26,25,29.88,29.65,14,5,20,0.00
2013-3-1,35,31,28,37,35,33,26,25,24,29.91,29.85,12,3,19,0.00
2013-3-2,37,29,23,34,34,32,25,24,23,29.94,29.82,17,4,21,0.01
2013-3-3,30,24,20,32,31,30,23,22,21,30.04,29.91,15,4,18,0.01
2013-3-4,51,35,21,33,30,27,23,21,19,30.14,30.01,12,3,19,0.00
2013-3-5,47,40,32,42,37,32,31,27,23,30.02,29.58,13,2,22,0.62
2013-3-6,32,27,23,38,34,32,28,24,23,30.16,29.65,28,6,35,0.00
2013-3-7,44,32,25,39,35,32,27,25,23,30.27,30.16,10,2,13,0.01
2013-3-8,52,35,23,36,34,32,25,23,21,30.32,30.23,10,2,14,0.00
2013-3-9,63,44,23,34,32,30,25,23,21,30.29,30.15,13,2,16,0.00
2013-3-10,66,51,38,36,34,34,26,25,25,30.17,30.01,13,3,21,0.00
2013-3-11,56,51,49,45,41,36,34,31,26,30.04,29.71,17,5,27,0.43
2013-3-12,52,44,35,45,42,38,36,32,28,29.98,29.68,16,3,18,0.12
2013-3-13,43,35,26,40,38,36,30,27,25,30.15,29.96,19,5,26,0.00
2013-3-14,45,31,21,41,34,32,32,23,21,30.27,30.14,18,4,26,0.00
2013-3-15,66,47,28,41,36,32,33,25,23,30.19,29.88,18,2,22,0.00
2013-3-16,72,61,52,41,39,38,31,29,28,29.87,29.66,19,4,27,0.00
2013-3-17,71,60,51,42,41,41,33,31,31,29.83,29.72,12,2,15,0.00
2013-3-18,51,45,41,45,43,41,34,33,32,29.86,29.73,19,4,19,0.57
2013-3-19,53,44,35,44,41,37,35,30,27,30.02,29.78,19,5,26,0.01
2013-3-20,52,38,29,38,36,31,28,25,21,30.04,29.78,14,3,25,0.00
2013-3-21,33,26,18,36,34,31,26,23,20,29.95,29.75,16,5,22,0.01
2013-3-22,48,33,19,39,33,28,29,23,20,30.02,29.94,7,1,11,0.00
2013-3-23,54,43,35,38,37,36,29,27,26,29.99,29.76,10,2,13,0.08
2013-3-24,49,42,38,39,39,37,30,29,28,29.83,29.39,13,4,17,0.79
2013-3-25,39,32,27,39,37,34,30,27,25,29.87,29.44,15,6,27,0.01
2013-3-26,34,28,25,41,34,33,31,24,23,30.20,29.87,15,6,23,0.02
2013-3-27,44,33,25,36,35,32,26,24,22,30.26,30.18,15,3,17,0.01
2013-3-28,48,36,24,36,34,32,25,23,21,30.27,30.19,20,3,21,0.00
2013-3-29,54,36,23,36,34,32,26,24,22,30.31,30.21,13,1,15,0.07
2013-3-30,60,47,38,38,37,36,28,27,26,30.21,29.97,9,1,13,0.18
2013-3-31,62,51,45,42,40,38,33,31,28,29.97,29.75,12,2,18,0.29
2013-4-1,61,50,38,42,41,40,33,32,30,29.92,29.77,18,3,23,0.02
2013-4-2,56,44,33,40,38,36,30,28,27,30.09,29.91,12,3,18,0.00
2013-4-3,58,45,32,36,36,34,27,26,25,30.18,30.08,10,2,14,0.00
2013-4-4,46,37,33,36,35,34,27,26,25,30.15,29.91,10,3,14,0.51
2013-4-5,55,44,36,38,37,36,29,28,27,30.05,29.90,11,2,14,0.00
2013-4-6,67,48,30,38,37,37,29,28,28,30.17,30.04,12,2,19,0.00
2013-4-7,69,55,38,40,38,37,30,29,28,30.10,29.96,11,2,17,0.00
2013-4-8,75,59,43,46,43,39,37,34,30,30.05,29.94,11,2,14,0.00
2013-4-9,81,64,49,50,47,44,45,39,35,30.09,29.96,10,2,12,0.00
2013-4-10,84,67,50,54,50,47,46,42,39,29.99,29.81,15,2,15,0.00
2013-4-11,76,64,54,55,51,49,51,44,42,29.83,29.57,15,2,20,0.80
2013-4-12,68,60,48,54,51,48,48,44,40,29.78,29.48,12,3,19,0.47
2013-4-13,68,55,40,48,46,44,40,37,35,29.98,29.78,15,3,19,0.00
2013-4-14,67,52,36,45,44,43,36,35,34,30.01,29.88,14,3,28,0.00
2013-4-15,69,58,49,52,48,44,44,40,35,30.08,29.87,14,4,19,0.01
2013-4-16,78,63,50,54,52,49,47,45,42,30.16,30.04,12,2,16,0.00
2013-4-17,72,62,55,58,54,51,55,49,45,30.13,30.00,10,1,19,0.76
2013-4-18,72,63,55,56,54,52,51,48,44,30.00,29.80,19,4,26,0.00
2013-4-19,67,59,40,58,54,52,54,50,45,29.84,29.58,14,4,27,0.44
2013-4-20,56,44,32,52,48,46,45,39,37,30.24,29.85,15,4,21,0.00
2013-4-21,59,45,30,46,44,43,37,35,34,30.37,30.24,15,4,20,0.00
2013-4-22,64,50,40,44,43,41,35,34,31,30.32,30.09,13,3,16,0.00
2013-4-23,71,54,36,45,44,41,36,34,31,30.18,29.98,10,2,15,0.00
2013-4-24,70,57,45,51,48,45,43,39,36,30.03,29.89,12,2,17,0.07
2013-4-25,66,50,37,50,46,43,43,36,31,30.27,30.01,15,3,16,0.00
2013-4-26,67,50,31,45,43,41,35,33,31,30.35,30.20,11,2,16,0.00
2013-4-27,54,50,47,46,45,44,37,36,34,30.29,30.14,6,1,11,0.71
2013-4-28,52,49,46,46,46,45,38,37,37,30.15,29.91,11,2,23,1.25
2013-4-29,72,58,48,51,49,46,43,41,38,29.98,29.83,10,2,14,0.01
2013-4-30,74,60,48,52,51,49,45,43,41,30.05,29.88,13,2,17,0.00
2013-5-1,64,57,54,53,51,50,48,44,42,30.15,30.04,13,4,19,0.00
2013-5-2,62,54,51,54,52,50,47,45,42,30.18,30.10,12,3,16,0.03
2013-5-3,58,53,50,52,51,50,46,44,41,30.12,29.97,16,5,19,0.07
2013-5-4,51,47,45,50,48,48,43,41,40,29.97,29.87,18,5,20,0.39
2013-5-5,49,46,44,48,47,47,42,42,41,29.91,29.74,16,5,28,3.06
2013-5-6,64,54,44,50,48,47,46,42,37,29.81,29.69,14,3,18,0.11
2013-5-7,68,52,41,50,49,47,43,41,40,29.88,29.78,11,2,15,0.01
2013-5-8,66,56,48,54,51,49,47,45,42,29.97,29.84,10,1,12,0.03
2013-5-9,76,60,46,56,53,50,49,47,44,30.04,29.94,10,1,13,0.00
2013-5-10,76,61,49,57,54,52,51,49,46,30.03,29.85,11,1,14,0.01
2013-5-11,73,62,56,55,54,53,51,49,48,29.88,29.73,14,2,15,0.01
2013-5-12,60,53,43,53,50,48,48,44,40,30.01,29.81,17,5,23,0.00
2013-5-13,59,48,37,49,46,42,42,37,31,30.14,30.01,15,3,24,0.00
2013-5-14,75,55,32,49,46,44,41,37,35,30.20,30.00,10,2,14,0.00
2013-5-15,84,68,54,53,48,40,46,41,36,30.03,29.86,10,2,12,0.00
2013-5-16,78,64,48,53,50,44,49,46,41,29.95,29.86,7,1,13,0.00
2013-5-17,79,65,51,56,54,52,50,48,45,30.01,29.91,12,2,14,0.00
2013-5-18,69,62,58,55,54,53,51,49,47,29.98,29.91,4,0,7,0.37
2013-5-19,76,64,58,55,55,53,52,51,48,30.00,29.89,9,1,13,0.16
2013-5-20,81,68,57,60,58,54,59,55,50,30.01,29.90,8,1,12,0.01
2013-5-21,82,66,56,60,58,56,57,56,53,29.95,29.83,9,1,13,0.00
2013-5-22,77,66,56,59,58,57,58,55,52,29.90,29.75,10,2,15,0.09
2013-5-23,78,65,57,60,58,55,59,55,49,29.85,29.75,11,2,20,0.09
2013-5-24,63,57,48,57,54,51,55,49,44,30.14,29.84,20,5,25,0.00
2013-5-25,74,55,37,52,50,49,47,44,43,30.27,30.12,14,2,20,0.00
2013-5-26,71,57,46,51,50,49,46,44,43,30.20,30.10,12,2,15,0.07
2013-5-27,78,63,46,53,51,49,50,47,44,30.18,30.03,8,2,14,0.00
2013-5-28,81,67,54,57,55,51,54,52,48,30.09,30.00,9,2,15,0.00
2013-5-29,82,67,53,58,56,53,55,53,49,30.12,30.01,10,2,17,0.00
2013-5-30,80,67,52,58,56,54,55,53,51,30.16,30.03,12,2,17,0.00
2013-5-31,81,68,55,59,57,55,56,54,51,30.10,29.99,11,2,14,0.00
2013-6-1,83,70,59,57,56,55,56,55,53,30.01,29.88,10,2,16,0.01
2013-6-2,70,64,60,58,57,56,58,57,54,29.94,29.79,6,0,12,0.58
2013-6-3,77,67,60,59,57,55,59,55,50,29.88,29.76,10,2,16,0.01
2013-6-4,78,66,55,58,57,55,57,54,49,29.96,29.86,11,2,14,0.00
2013-6-5,78,68,61,60,58,56,60,57,53,29.96,29.81,15,3,19,0.59
2013-6-6,76,66,60,59,58,57,60,57,53,29.86,29.66,7,1,11,0.07
2013-6-7,79,67,62,59,58,57,61,59,57,29.73,29.58,10,1,13,0.30
2013-6-8,78,66,58,59,58,57,61,60,57,29.99,29.73,7,1,15,0.13
2013-6-9,80,66,58,59,58,57,62,60,57,30.04,29.91,10,1,14,0.81
2013-6-10,76,68,61,61,59,58,63,60,55,29.93,29.79,10,2,19,0.36
2013-6-11,82,70,60,59,59,57,60,58,55,29.93,29.83,11,2,14,0.19
2013-6-12,87,72,58,60,59,57,62,58,55,29.95,29.84,14,2,19,0.00
2013-6-13,85,71,64,60,59,58,61,59,56,29.84,29.61,15,3,22,0.45
2013-6-14,74,65,54,60,58,56,61,58,55,29.98,29.71,11,2,14,0.00
2013-6-15,80,65,49,58,56,55,59,56,53,30.06,29.96,10,1,11,0.00
2013-6-16,83,70,56,59,58,56,61,58,56,30.04,29.90,8,1,15,0.00
2013-6-17,80,70,65,60,59,58,62,59,56,29.93,29.82,8,1,10,0.09
2013-6-18,76,67,60,60,59,58,62,59,54,29.85,29.71,14,1,16,0.01
2013-6-19,79,66,55,60,58,57,60,57,54,30.02,29.83,7,1,9,0.01
2013-6-20,79,67,55,59,58,57,60,58,54,30.12,30.01,12,2,17,0.00
2013-6-21,80,68,57,59,58,57,60,59,57,30.15,30.06,10,2,16,0.00
2013-6-22,82,68,55,59,58,57,60,58,56,30.15,30.01,8,1,15,0.00
2013-6-23,79,67,54,59,58,57,61,58,56,30.12,30.01,11,1,14,0.00
2013-6-24,83,71,61,62,60,58,66,61,56,30.12,29.97,8,2,14,0.12
2013-6-25,82,70,61,64,61,60,71,65,61,30.04,29.91,9,1,12,0.18
2013-6-26,83,70,62,63,60,57,69,63,55,29.96,29.81,9,1,13,0.21
2013-6-27,85,72,62,62,61,60,66,64,60,29.86,29.65,16,2,22,0.22
2013-6-28,84,72,62,62,61,60,66,64,62,29.72,29.52,10,2,14,0.01
2013-6-29,81,69,58,61,60,59,65,63,61,29.62,29.54,9,1,11,0.01
2013-6-30,81,66,54,60,59,58,63,61,59,29.71,29.61,9,1,13,0.04
2013-7-1,78,67,61,62,60,58,64,61,57,29.84,29.70,13,1,15,0.50
2013-7-2,81,70,62,62,61,60,64,62,58,29.99,29.83,7,1,13,0.17
2013-7-3,71,65,60,62,61,59,64,61,59,30.11,29.97,6,1,10,1.55
2013-7-4,70,65,60,61,60,59,64,62,59,30.12,30.05,10,1,17,1.14
2013-7-5,79,70,63,61,60,59,65,63,61,30.12,30.04,10,2,18,0.16
2013-7-6,79,69,63,62,61,60,66,65,63,30.08,29.99,9,2,16,0.28
2013-7-7,76,69,65,62,61,60,67,65,63,30.06,29.98,8,1,12,0.57
2013-7-8,83,70,64,62,61,60,66,64,60,30.09,30.00,5,1,10,0.86
2013-7-9,86,72,64,63,61,60,66,63,58,30.07,29.94,7,1,11,0.05
2013-7-10,84,70,64,63,61,60,66,63,59,30.02,29.84,15,1,17,1.41
2013-7-11,78,69,65,62,62,61,66,64,61,29.87,29.77,6,0,8,0.00
2013-7-12,80,69,62,62,62,60,66,65,63,29.89,29.77,10,1,14,0.02
2013-7-13,75,67,61,61,61,60,65,64,61,30.01,29.88,14,2,16,0.02
2013-7-14,70,68,65,62,61,60,66,65,63,30.16,29.99,14,2,21,0.25
2013-7-15,81,72,66,63,62,60,67,64,60,30.23,30.15,9,2,16,0.00
2013-7-16,87,73,63,63,61,60,67,63,59,30.23,30.14,7,1,10,0.00
2013-7-17,87,71,65,63,61,60,66,62,57,30.20,30.06,7,1,9,0.08
2013-7-18,86,72,63,62,61,60,66,63,58,30.13,29.96,10,1,13,0.01
2013-7-19,86,73,63,63,62,61,68,66,64,30.04,29.86,6,1,11,0.00
2013-7-20,82,70,65,63,62,61,69,67,65,29.94,29.84,6,1,11,0.06
2013-7-21,86,69,65,63,62,61,69,67,65,29.93,29.84,8,1,13,1.57
2013-7-22,83,71,63,63,62,60,69,64,58,29.90,29.72,9,1,13,0.06
2013-7-23,83,71,62,62,61,60,66,63,58,29.80,29.69,8,2,13,0.01
2013-7-24,83,71,64,63,62,60,67,64,59,29.77,29.69,9,1,11,0.00
2013-7-25,83,69,62,62,61,59,65,63,57,29.94,29.77,10,1,12,0.00
2013-7-26,82,68,57,61,61,59,65,63,60,29.99,29.89,9,1,13,0.00
2013-7-27,78,69,64,62,61,60,66,65,63,29.93,29.78,6,1,9,0.43
2013-7-28,81,70,62,62,61,60,66,65,63,29.93,29.80,11,1,13,0.01
2013-7-29,80,66,57,61,60,59,65,61,56,30.11,29.93,9,1,11,0.00
2013-7-30,81,67,56,61,60,58,63,60,56,30.13,30.04,9,1,11,0.00
2013-7-31,74,67,61,63,61,60,66,63,61,30.09,29.87,7,1,8,0.28
2013-8-1,80,70,63,64,62,60,67,64,59,29.89,29.81,11,1,15,0.38
2013-8-2,84,70,61,62,62,60,68,66,63,29.95,29.86,8,1,11,0.00
2013-8-3,80,70,62,63,62,61,69,67,64,29.94,29.88,6,1,10,0.00
2013-8-4,78,69,62,62,62,61,68,67,65,29.96,29.89,14,2,17,0.01
2013-8-5,83,69,58,62,61,59,67,62,56,29.98,29.86,7,1,13,0.00
2013-8-6,82,71,63,62,61,60,66,63,58,29.92,29.85,8,1,12,0.04
2013-8-7,75,69,65,63,62,61,67,64,61,29.94,29.88,6,1,10,0.23
2013-8-8,81,70,63,63,62,60,67,64,59,29.95,29.89,8,1,14,0.03
2013-8-9,86,73,65,63,62,61,68,66,63,29.98,29.89,8,1,19,0.01
2013-8-10,81,72,66,63,62,62,69,67,66,30.02,29.94,6,1,12,0.12
2013-8-11,83,71,64,63,62,61,69,67,65,30.05,29.96,5,0,10,0.19
2013-8-12,84,70,64,63,61,59,69,64,57,30.01,29.88,14,1,20,0.92
2013-8-13,82,70,64,63,62,60,67,64,59,29.89,29.74,10,1,17,0.08
2013-8-14,74,65,59,62,61,59,66,62,56,29.97,29.80,8,1,10,0.03
2013-8-15,70,62,58,61,60,59,62,60,56,30.04,29.95,12,3,15,0.00
2013-8-16,72,62,54,59,58,57,60,58,55,30.06,29.98,15,2,18,0.00
2013-8-17,68,62,59,59,58,57,61,59,57,30.08,30.01,11,2,14,0.01
2013-8-18,76,65,60,60,59,58,64,62,59,30.12,30.03,9,1,11,0.07
2013-8-19,73,65,62,63,61,59,65,63,59,30.09,29.99,6,1,9,1.31
2013-8-20,78,68,62,62,61,59,66,62,57,30.10,30.01,8,1,10,0.29
2013-8-21,75,67,62,63,61,60,69,63,57,30.13,30.04,5,0,9,0.00
2013-8-22,82,69,60,62,61,60,66,63,59,30.10,29.95,5,1,10,0.01
2013-8-23,81,68,61,63,62,60,66,63,58,30.01,29.89,8,1,12,0.01
2013-8-24,77,67,60,62,61,60,65,64,62,30.20,30.00,11,2,15,0.00
2013-8-25,76,64,52,61,60,59,64,61,60,30.30,30.18,8,1,12,0.00
2013-8-26,79,64,53,62,60,58,66,60,57,30.25,30.07,5,1,12,0.00
2013-8-27,80,66,55,62,60,58,64,61,58,30.11,29.96,8,1,9,0.01
2013-8-28,83,70,61,62,61,59,65,61,56,30.00,29.87,7,1,10,0.00
2013-8-29,84,74,65,64,61,59,69,61,55,29.89,29.82,8,2,13,0.00
2013-8-30,81,73,67,63,62,60,68,63,58,29.91,29.81,10,2,14,0.00
2013-8-31,84,70,63,63,62,61,67,65,62,29.87,29.77,9,1,17,0.12
2013-9-1,84,70,63,63,62,61,68,66,63,29.83,29.71,10,1,19,0.81
2013-9-2,82,70,64,63,62,61,68,66,64,29.84,29.73,7,1,9,0.01
2013-9-3,80,69,60,64,61,60,71,63,57,29.91,29.76,9,2,19,0.38
2013-9-4,83,68,59,63,61,60,67,62,57,30.03,29.91,10,1,10,0.01
2013-9-5,82,67,56,62,60,58,65,61,54,30.08,29.99,6,1,9,0.00
2013-9-6,80,64,52,62,60,58,65,59,56,30.11,29.99,9,1,13,0.00
2013-9-7,81,66,57,60,60,59,63,61,59,30.04,29.91,10,1,12,0.00
2013-9-8,77,66,58,60,60,59,63,62,60,29.94,29.87,10,1,11,0.01
2013-9-9,83,69,60,62,60,59,65,62,58,30.06,29.94,11,1,12,0.00
2013-9-10,83,70,60,63,61,60,69,61,57,30.15,30.05,8,1,12,0.01
2013-9-11,82,68,58,62,61,59,65,61,57,30.16,30.00,6,0,9,0.27
2013-9-12,77,68,62,62,61,60,66,63,59,30.03,29.80,8,1,17,0.15
2013-9-13,73,64,52,62,60,58,65,60,55,29.85,29.74,11,2,19,0.06
2013-9-14,73,58,47,59,58,57,59,58,56,30.04,29.85,7,1,10,0.00
2013-9-15,75,61,49,58,58,56,60,58,55,30.12,30.02,9,1,11,0.01
2013-9-16,77,63,51,60,58,57,62,58,55,30.09,30.01,6,1,9,0.01
2013-9-17,67,62,58,60,58,57,61,57,53,30.17,30.08,12,3,17,0.00
2013-9-18,65,60,56,60,58,56,62,56,53,30.16,30.07,9,1,10,0.00
2013-9-19,75,64,57,61,59,57,63,58,56,30.10,29.99,8,1,11,0.00
2013-9-20,78,66,57,62,60,59,63,61,59,30.01,29.82,7,1,11,0.00
2013-9-21,67,60,57,61,60,59,63,62,60,29.83,29.63,6,0,8,0.94
2013-9-22,72,60,50,59,58,57,61,59,57,29.86,29.69,8,1,10,0.01
2013-9-23,73,59,48,59,58,56,61,57,54,29.97,29.85,7,1,12,0.00
2013-9-24,74,61,50,60,58,56,60,57,54,29.99,29.83,10,1,14,0.01
2013-9-25,62,59,57,61,59,58,62,60,58,29.84,29.75,7,1,9,1.14
2013-9-26,71,60,53,61,59,58,61,59,57,29.97,29.80,5,0,10,0.01
2013-9-27,74,60,51,61,59,57,65,58,56,30.09,29.97,6,0,12,0.01
2013-9-28,70,59,49,59,58,56,59,57,55,30.15,30.04,8,1,11,0.00
2013-9-29,70,59,52,57,56,55,57,56,54,30.08,29.94,5,1,10,0.00
2013-9-30,71,60,51,58,57,55,58,56,53,30.01,29.91,6,1,10,0.00
2013-10-1,75,61,51,59,58,56,59,57,54,30.08,29.98,8,1,11,0.00
2013-10-2,76,61,53,60,58,57,62,58,55,30.11,30.00,5,0,11,0.01
2013-10-3,76,63,54,61,59,57,63,58,56,30.07,29.98,8,1,12,0.00
2013-10-4,78,64,56,61,59,58,64,59,55,30.09,30.00,6,1,8,0.01
2013-10-5,80,65,55,59,58,57,61,59,57,30.08,29.94,9,1,11,0.00
2013-10-6,77,65,55,59,58,57,60,59,57,29.97,29.78,17,2,17,0.03
2013-10-7,65,57,47,60,58,56,63,58,55,29.98,29.70,6,1,9,0.79
2013-10-8,66,54,44,57,56,54,56,53,50,30.13,29.97,12,3,21,0.00
2013-10-9,71,56,44,57,56,54,57,53,49,30.14,30.04,7,1,11,0.00
2013-10-10,69,56,47,58,56,55,55,54,52,30.07,29.97,10,1,13,0.00
2013-10-11,72,56,46,57,56,54,54,53,50,30.02,29.91,10,1,13,0.01
2013-10-12,71,58,47,56,56,55,55,54,52,30.04,29.95,8,1,9,0.00
2013-10-13,68,61,57,57,56,55,58,56,54,30.12,30.04,7,1,10,0.05
2013-10-14,68,61,56,60,58,56,60,58,56,30.14,30.04,9,1,12,0.04
2013-10-15,67,59,53,59,58,57,58,57,54,30.09,29.94,11,2,15,0.00
2013-10-16,67,58,49,58,57,56,58,55,53,29.98,29.86,6,1,8,0.01
2013-10-17,69,61,54,61,59,57,61,58,55,29.89,29.74,9,1,11,0.02
2013-10-18,67,55,48,59,57,55,59,55,50,29.93,29.82,10,1,11,0.00
2013-10-19,63,53,46,56,55,54,55,53,51,29.89,29.78,7,1,14,0.00
2013-10-20,63,48,35,54,52,51,52,49,47,30.02,29.88,9,1,11,0.01
2013-10-21,67,50,37,53,52,50,49,47,45,30.09,29.93,8,1,11,0.00
2013-10-22,67,55,47,54,53,52,50,49,46,29.96,29.73,7,1,13,0.00
2013-10-23,52,44,33,53,51,48,49,44,39,29.99,29.67,15,4,22,0.01
2013-10-24,50,39,28,50,48,46,45,41,38,30.13,29.98,9,2,14,0.00
2013-10-25,45,36,27,48,46,44,42,39,36,30.32,30.14,11,2,15,0.00
2013-10-26,58,40,24,45,43,42,37,36,35,30.31,30.05,9,1,10,0.00
2013-10-27,62,53,44,48,46,44,42,39,37,30.06,29.98,9,1,14,0.00
2013-10-28,60,51,44,52,50,47,46,44,41,30.19,30.03,6,0,9,0.04
2013-10-29,67,54,46,53,51,50,49,46,44,30.27,30.16,6,0,8,0.00
2013-10-30,71,59,50,56,53,50,52,49,45,30.20,30.07,8,1,15,0.00
2013-10-31,66,60,51,56,54,53,51,50,48,30.09,29.67,19,3,21,0.00
2013-11-1,73,63,48,57,54,50,56,49,41,29.68,29.53,19,3,29,0.04
2013-11-2,57,46,39,52,50,48,47,44,42,29.97,29.65,21,2,24,0.00
2013-11-3,55,44,36,48,47,45,42,41,39,30.29,29.97,13,2,14,0.00
2013-11-4,55,44,31,46,45,44,39,37,35,30.43,30.28,14,3,15,0.00
2013-11-5,60,45,33,46,44,40,38,35,30,30.45,30.33,13,2,14,0.00
2013-11-6,65,54,43,52,49,44,45,41,36,30.35,30.04,14,2,17,0.00
2013-11-7,58,47,36,53,50,48,50,43,39,30.12,29.93,19,3,23,0.05
2013-11-8,50,39,31,51,45,42,47,37,31,30.27,30.12,11,2,17,0.00
2013-11-9,54,41,27,44,42,41,35,34,33,30.30,30.18,6,1,10,0.00
2013-11-10,61,48,35,43,42,41,35,34,33,30.24,30.14,17,2,19,0.00
2013-11-11,63,44,26,42,41,39,35,33,31,30.26,30.11,7,1,12,0.00
2013-11-12,49,34,22,46,42,38,40,34,30,30.44,30.06,16,3,23,0.00
2013-11-13,43,27,15,40,38,35,31,29,27,30.56,30.44,9,1,13,0.00
2013-11-14,57,35,17,40,38,36,30,29,26,30.47,30.28,8,1,11,0.00
2013-11-15,48,40,28,45,41,37,36,33,29,30.30,30.13,5,1,8,0.17
2013-11-16,58,50,43,46,45,43,40,38,36,30.18,30.08,11,2,17,0.01
2013-11-17,64,56,48,48,47,46,43,41,40,30.11,29.78,6,1,16,0.35
2013-11-18,62,54,42,50,49,46,45,42,39,29.97,29.75,19,4,21,0.08
2013-11-19,51,41,33,46,44,41,39,35,31,30.15,29.97,8,2,20,0.00
2013-11-20,48,40,33,44,42,41,35,33,31,30.35,30.15,15,4,16,0.00
2013-11-21,52,45,38,49,45,41,40,37,33,30.39,30.28,12,2,14,0.00
2013-11-22,66,55,45,53,50,46,46,43,39,30.31,30.05,8,1,13,0.00
2013-11-23,56,44,30,51,48,44,45,42,37,30.17,30.01,15,4,27,0.00
2013-11-24,33,25,18,44,40,37,37,33,30,30.46,30.17,13,3,20,0.00
2013-11-25,37,27,18,39,37,35,30,29,26,30.47,30.24,9,2,12,0.00
2013-11-26,42,39,32,47,42,37,38,34,28,30.24,29.62,13,2,17,1.20
2013-11-27,41,28,18,46,40,35,40,32,26,30.19,29.60,20,4,24,0.05
2013-11-28,46,27,13,37,35,33,28,26,24,30.45,30.19,8,1,9,0.08
2013-11-29,52,34,20,38,36,34,29,28,26,30.55,30.43,7,1,10,0.00
2013-11-30,47,35,26,36,36,35,28,28,27,30.52,30.30,11,2,14,0.00
2013-12-1,58,39,26,38,36,35,30,28,27,30.30,29.99,11,1,13,0.00
2013-12-2,53,42,30,44,41,37,36,32,29,29.99,29.75,5,0,10,0.00
2013-12-3,57,48,40,49,45,42,44,37,34,29.85,29.76,7,1,10,0.01
2013-12-4,66,53,44,50,47,45,42,40,38,29.97,29.84,12,1,13,0.01
2013-12-5,70,59,51,53,49,45,46,42,38,29.98,29.86,9,1,13,0.25
2013-12-6,70,62,50,54,50,48,48,44,41,29.93,29.79,13,2,20,0.61
2013-12-7,50,43,38,49,47,46,43,41,39,30.26,29.89,10,2,15,0.01
2013-12-8,41,37,35,46,45,44,39,38,37,30.25,30.10,15,5,18,0.34
2013-12-9,52,44,35,51,48,44,44,41,37,30.11,29.94,10,2,11,0.24
2013-12-10,45,38,26,50,47,42,46,39,33,30.26,29.83,19,4,30,0.31
2013-12-11,50,32,18,44,41,38,36,32,28,30.42,30.26,7,1,11,0.00
2013-12-12,38,30,22,44,38,34,37,29,24,30.37,30.29,14,3,22,0.00
2013-12-13,49,32,17,41,38,32,31,28,24,30.36,30.19,10,1,12,0.00
2013-12-14,46,39,35,41,39,38,33,31,29,30.19,29.71,12,3,17,0.35
2013-12-15,47,35,26,42,40,38,34,32,29,30.08,29.69,19,4,24,0.01
2013-12-16,51,36,21,44,39,36,37,30,27,30.19,30.07,10,1,16,0.01
2013-12-17,55,42,27,42,41,38,33,31,29,30.12,29.91,20,4,27,0.00
2013-12-18,47,35,25,47,38,33,40,28,22,30.26,30.05,15,3,23,0.00
2013-12-19,60,42,25,42,40,37,33,30,27,30.29,30.13,12,1,12,0.00
2013-12-20,62,50,38,44,42,40,35,32,30,30.13,30.02,10,2,13,0.00
2013-12-21,66,59,49,46,44,43,38,35,33,30.04,29.81,11,2,19,0.13
2013-12-22,67,58,52,48,47,46,40,40,38,29.94,29.77,15,2,23,1.91
2013-12-23,52,45,30,54,49,47,51,42,39,30.16,29.90,9,2,13,0.08
2013-12-24,30,26,18,47,41,36,39,32,27,30.40,30.15,19,3,24,0.00
2013-12-25,38,25,15,36,34,33,27,26,25,30.46,30.32,12,2,14,0.00
2013-12-26,48,30,19,36,34,32,27,25,24,30.36,30.25,9,1,12,0.00
2013-12-27,50,33,22,36,35,33,27,26,25,30.44,30.32,6,1,10,0.00
2013-12-28,42,32,20,37,35,33,29,27,25,30.40,30.05,9,0,17,0.33
2013-12-29,52,42,36,41,40,37,34,32,29,30.04,29.77,10,3,20,0.13
2013-12-30,45,37,32,42,40,39,33,32,31,30.11,29.93,8,1,12,0.00
2013-12-31,40,32,24,40,37,34,31,28,26,30.34,30.09,16,2,18,0.00
2014-1-1,45,32,24,36,35,34,27,26,25,30.34,30.09,9,1,11,0.00
2014-1-2,47,34,16,45,39,34,36,30,26,30.09,29.61,25,4,28,0.07